createdAt,value
2019-01-11T00:01:48.880Z,71.74
2019-01-11T00:04:16.690Z,71.73
2019-01-11T00:06:44.461Z,71.14
2019-01-11T00:09:12.288Z,72.06
2019-01-11T00:11:40.012Z,70.99
2019-01-11T00:14:07.629Z,71.76
2019-01-11T00:16:35.338Z,71.50
2019-01-11T00:19:07.993Z,71.77
2019-01-11T00:21:35.963Z,71.98
2019-01-11T00:24:04.989Z,71.65
2019-01-11T00:26:32.731Z,71.20
2019-01-11T00:29:00.493Z,72.62
2019-01-11T00:31:27.877Z,71.84
2019-01-11T00:33:56.182Z,71.78
2019-01-11T00:36:24.020Z,71.36
2019-01-11T00:38:51.943Z,72.08
2019-01-11T00:41:19.820Z,71.33
2019-01-11T00:43:47.643Z,71.71
2019-01-11T00:46:15.360Z,72.52
2019-01-11T00:48:43.076Z,71.54
2019-01-11T00:51:10.553Z,71.57
2019-01-11T00:53:38.013Z,71.81
2019-01-11T00:56:05.711Z,72.23
2019-01-11T00:58:33.620Z,70.59
2019-01-11T01:01:01.078Z,71.15
2019-01-11T01:03:29.179Z,71.22
2019-01-11T01:05:56.820Z,71.44
2019-01-11T01:08:30.413Z,72.00
2019-01-11T01:10:54.609Z,71.87
2019-01-11T01:13:22.758Z,71.86
2019-01-11T01:15:50.473Z,72.03
2019-01-11T01:18:18.261Z,70.55
2019-01-11T01:20:45.951Z,71.55
2019-01-11T01:23:13.287Z,70.73
2019-01-11T01:25:41.667Z,70.68
2019-01-11T01:28:09.151Z,70.33
2019-01-11T01:30:36.968Z,69.36
2019-01-11T01:33:04.909Z,70.66
2019-01-11T01:35:32.915Z,69.87
2019-01-11T01:38:00.705Z,70.65
2019-01-11T01:40:27.948Z,70.34
2019-01-11T01:42:55.194Z,69.31
2019-01-11T01:45:22.728Z,69.43
2019-01-11T01:47:50.995Z,69.07
2019-01-11T01:50:18.805Z,68.82
2019-01-11T01:52:47.085Z,70.74
2019-01-11T01:55:14.983Z,69.61
2019-01-11T01:57:42.463Z,70.10
2019-01-11T02:00:14.539Z,71.45
2019-01-11T02:02:42.353Z,70.51
2019-01-11T02:05:10.269Z,70.70
2019-01-11T02:07:38.435Z,70.03
2019-01-11T02:10:08.612Z,70.06
2019-01-11T02:12:36.310Z,70.16
2019-01-11T02:15:05.001Z,70.29
2019-01-11T02:17:32.597Z,69.23
2019-01-11T02:20:00.378Z,69.07
2019-01-11T02:22:27.878Z,70.06
2019-01-11T02:24:55.566Z,71.60
2019-01-11T02:27:44.601Z,71.41
2019-01-11T02:30:22.744Z,70.14
2019-01-11T02:32:52.857Z,69.70
2019-01-11T02:35:20.947Z,69.29
2019-01-11T02:37:48.377Z,69.73
2019-01-11T02:40:16.002Z,68.93
2019-01-11T02:42:44.095Z,68.83
2019-01-11T02:45:15.339Z,69.11
2019-01-11T02:47:42.522Z,69.09
2019-01-11T02:50:13.332Z,69.53
2019-01-11T02:52:41.627Z,69.82
2019-01-11T02:55:09.728Z,70.29
2019-01-11T02:57:37.464Z,70.30
2019-01-11T03:00:13.884Z,70.75
2019-01-11T03:02:42.146Z,70.66
2019-01-11T03:05:10.503Z,70.96
2019-01-11T03:07:38.024Z,71.30
2019-01-11T03:10:10.478Z,71.52
2019-01-11T03:12:38.137Z,71.59
2019-01-11T03:15:06.430Z,71.50
2019-01-11T03:17:33.627Z,72.14
2019-01-11T03:20:01.274Z,72.60
2019-01-11T03:22:28.970Z,72.68
2019-01-11T03:24:56.435Z,72.27
2019-01-11T03:27:23.811Z,72.96
2019-01-11T03:29:51.207Z,72.87
2019-01-11T03:32:19.125Z,73.06
2019-01-11T03:35:06.386Z,72.50
2019-01-11T03:37:34.300Z,72.39
2019-01-11T03:40:02.261Z,72.71
2019-01-11T03:42:29.652Z,72.44
2019-01-11T03:44:57.573Z,72.48
2019-01-11T03:47:25.414Z,72.27
2019-01-11T03:49:55.033Z,72.30
2019-01-11T03:52:22.952Z,72.31
2019-01-11T03:54:50.519Z,72.66
2019-01-11T03:57:18.390Z,72.56
2019-01-11T03:59:46.293Z,72.74
2019-01-11T04:02:13.877Z,72.72
2019-01-11T04:04:41.672Z,72.93
2019-01-11T04:07:09.329Z,72.97
2019-01-11T04:09:37.603Z,72.54
2019-01-11T04:12:05.298Z,72.62
2019-01-11T04:14:33.121Z,72.79
2019-01-11T04:17:00.736Z,72.75
2019-01-11T04:19:28.786Z,72.83
2019-01-11T04:22:08.154Z,72.83
2019-01-11T04:25:01.748Z,72.83
2019-01-11T04:27:29.087Z,72.88
2019-01-11T04:29:56.761Z,72.85
2019-01-11T04:32:24.369Z,72.56
2019-01-11T04:34:52.310Z,72.75
2019-01-11T04:37:20.614Z,72.77
2019-01-11T04:39:48.244Z,72.59
2019-01-11T04:42:15.902Z,72.77
2019-01-11T04:44:43.278Z,73.27
2019-01-11T04:47:11.017Z,74.16
2019-01-11T04:49:39.210Z,74.54
2019-01-11T04:52:07.228Z,74.01
2019-01-11T04:54:34.573Z,75.23
2019-01-11T04:57:03.014Z,74.86
2019-01-11T04:59:30.826Z,75.47
2019-01-11T05:01:58.228Z,75.44
2019-01-11T05:04:25.867Z,75.42
2019-01-11T05:06:53.409Z,75.77
2019-01-11T05:09:21.047Z,76.79
2019-01-11T05:11:48.436Z,76.55
2019-01-11T05:14:16.289Z,76.55
2019-01-11T05:16:43.556Z,76.47
2019-01-11T05:19:11.246Z,77.56
2019-01-11T05:21:38.987Z,77.33
2019-01-11T05:24:06.355Z,79.21
2019-01-11T05:26:34.790Z,77.65
2019-01-11T05:29:02.262Z,77.12
2019-01-11T05:31:30.117Z,77.29
2019-01-11T05:33:57.356Z,78.42
2019-01-11T05:36:24.855Z,78.00
2019-01-11T05:38:53.085Z,79.83
2019-01-11T05:41:20.884Z,79.60
2019-01-11T05:43:48.723Z,78.99
2019-01-11T05:46:16.385Z,78.75
2019-01-11T05:48:43.970Z,79.70
2019-01-11T05:51:11.501Z,79.65
2019-01-11T05:53:39.538Z,79.27
2019-01-11T05:56:09.821Z,78.92
2019-01-11T05:58:48.556Z,78.96
2019-01-11T06:01:16.352Z,80.21
2019-01-11T06:03:44.202Z,80.28
2019-01-11T06:06:11.383Z,79.19
2019-01-11T06:08:39.741Z,80.85
2019-01-11T06:11:07.443Z,80.66
2019-01-11T06:13:35.084Z,80.10
2019-01-11T06:16:04.245Z,80.47
2019-01-11T06:18:31.864Z,79.69
2019-01-11T06:21:03.393Z,81.32
2019-01-11T06:23:31.147Z,81.14
2019-01-11T06:25:59.318Z,80.82
2019-01-11T06:28:26.458Z,80.22
2019-01-11T06:30:53.671Z,81.06
2019-01-11T06:33:21.460Z,81.98
2019-01-11T06:35:49.629Z,81.36
2019-01-11T06:38:17.707Z,81.68
2019-01-11T06:40:45.205Z,81.79
2019-01-11T06:43:12.754Z,82.31
2019-01-11T06:45:40.483Z,80.51
2019-01-11T06:48:16.223Z,81.13
2019-01-11T06:50:43.586Z,81.05
2019-01-11T06:53:10.821Z,82.22
2019-01-11T06:55:38.102Z,81.77
2019-01-11T06:58:05.920Z,82.28
2019-01-11T07:00:33.312Z,81.28
2019-01-11T07:03:01.076Z,81.49
2019-01-11T07:05:29.175Z,81.13
2019-01-11T07:07:57.089Z,81.33
2019-01-11T07:10:24.677Z,81.10
2019-01-11T07:12:52.443Z,82.43
2019-01-11T07:15:20.154Z,82.20
2019-01-11T07:17:47.813Z,82.41
2019-01-11T07:20:15.288Z,82.34
2019-01-11T07:22:43.020Z,82.34
2019-01-11T07:25:11.430Z,82.54
2019-01-11T07:27:46.439Z,82.59
2019-01-11T07:30:14.157Z,83.83
2019-01-11T07:32:42.165Z,84.18
2019-01-11T07:35:10.283Z,83.68
2019-01-11T07:37:37.916Z,83.06
2019-01-11T07:40:07.017Z,83.09
2019-01-11T07:42:34.781Z,83.55
2019-01-11T07:45:03.219Z,83.20
2019-01-11T07:47:30.524Z,83.72
2019-01-11T07:49:58.526Z,84.07
2019-01-11T07:52:26.304Z,83.87
2019-01-11T07:54:53.859Z,83.92
2019-01-11T07:57:21.494Z,84.32
2019-01-11T07:59:49.117Z,83.84
2019-01-11T08:02:16.849Z,84.21
2019-01-11T08:04:44.695Z,84.68
2019-01-11T08:07:12.686Z,83.98
2019-01-11T08:09:40.180Z,84.00
2019-01-11T08:12:07.713Z,84.27
2019-01-11T08:14:35.357Z,84.37
2019-01-11T08:17:03.460Z,84.29
2019-01-11T08:19:31.255Z,84.85
2019-01-11T08:21:58.529Z,84.32
2019-01-11T08:24:26.359Z,84.98
2019-01-11T08:26:54.960Z,83.80
2019-01-11T08:29:23.230Z,84.22
2019-01-11T08:31:50.445Z,84.49
2019-01-11T08:34:17.715Z,84.45
2019-01-11T08:36:45.291Z,84.60
2019-01-11T08:39:12.885Z,84.67
2019-01-11T08:41:40.628Z,83.99
2019-01-11T08:44:07.997Z,83.58
2019-01-11T08:46:36.139Z,83.10
2019-01-11T08:49:03.765Z,83.01
2019-01-11T08:51:31.218Z,84.93
2019-01-11T08:53:58.744Z,84.35
2019-01-11T08:56:26.358Z,83.78
2019-01-11T08:58:53.804Z,83.54
2019-01-11T09:01:21.223Z,84.80
2019-01-11T09:03:49.301Z,84.43
2019-01-11T09:06:16.695Z,84.48
2019-01-11T09:08:44.199Z,84.92
2019-01-11T09:11:11.964Z,83.59
2019-01-11T09:13:39.623Z,84.82
2019-01-11T09:16:07.836Z,84.51
2019-01-11T09:18:42.566Z,83.98
2019-01-11T09:21:11.460Z,83.78
2019-01-11T09:23:40.606Z,85.90
2019-01-11T09:26:08.882Z,85.78
2019-01-11T09:28:36.863Z,84.33
2019-01-11T09:31:04.690Z,85.23
2019-01-11T09:33:32.375Z,84.08
2019-01-11T09:36:00.038Z,83.77
2019-01-11T09:38:27.422Z,84.18
2019-01-11T09:40:55.227Z,83.72
2019-01-11T09:43:23.176Z,83.79
2019-01-11T09:45:50.938Z,83.72
2019-01-11T09:48:18.595Z,84.28
2019-01-11T09:50:46.335Z,84.46
2019-01-11T09:53:13.952Z,83.90
2019-01-11T09:55:41.757Z,84.62
2019-01-11T09:58:09.462Z,84.42
2019-01-11T10:00:36.782Z,85.38
2019-01-11T10:03:06.637Z,84.90
2019-01-11T10:05:34.423Z,84.31
2019-01-11T10:08:01.977Z,84.56
2019-01-11T10:10:29.807Z,84.45
2019-01-11T10:12:57.651Z,84.90
2019-01-11T10:15:25.295Z,85.10
2019-01-11T10:17:53.260Z,85.30
2019-01-11T10:20:20.738Z,84.30
2019-01-11T10:22:48.759Z,84.24
2019-01-11T10:25:16.153Z,84.14
2019-01-11T10:27:43.315Z,84.37
2019-01-11T10:30:16.477Z,83.74
2019-01-11T10:32:44.622Z,83.50
2019-01-11T10:35:12.323Z,84.31
2019-01-11T10:37:39.786Z,84.60
2019-01-11T10:40:09.595Z,84.93
2019-01-11T10:42:37.118Z,85.21
2019-01-11T10:45:07.853Z,85.95
2019-01-11T10:47:35.822Z,85.53
2019-01-11T10:50:05.345Z,85.91
2019-01-11T10:52:33.017Z,85.16
2019-01-11T10:55:01.059Z,85.33
2019-01-11T10:57:28.446Z,84.65
2019-01-11T10:59:56.225Z,85.13
2019-01-11T11:02:23.644Z,85.19
2019-01-11T11:04:51.519Z,85.14
2019-01-11T11:07:18.785Z,85.47
2019-01-11T11:09:46.010Z,85.59
2019-01-11T11:12:13.532Z,85.97
2019-01-11T11:14:41.574Z,85.37
2019-01-11T11:17:09.054Z,85.27
2019-01-11T11:19:36.852Z,85.33
2019-01-11T11:22:04.687Z,85.04
2019-01-11T11:24:32.066Z,85.22
2019-01-11T11:26:59.688Z,85.77
2019-01-11T11:29:27.273Z,85.62
2019-01-11T11:31:54.849Z,85.35
2019-01-11T11:34:26.683Z,84.92
2019-01-11T11:36:54.267Z,85.66
2019-01-11T11:39:21.867Z,85.45
2019-01-11T11:41:49.699Z,85.37
2019-01-11T11:44:17.787Z,84.72
2019-01-11T11:46:45.172Z,85.21
2019-01-11T11:49:13.102Z,84.88
2019-01-11T11:51:41.503Z,84.72
2019-01-11T11:54:08.775Z,85.59
2019-01-11T11:56:36.487Z,86.12
2019-01-11T11:59:04.132Z,85.91
2019-01-11T12:01:31.782Z,85.60
2019-01-11T12:03:59.303Z,86.08
2019-01-11T12:06:26.535Z,85.58
2019-01-11T12:08:54.187Z,85.98
2019-01-11T12:11:22.031Z,85.16
2019-01-11T12:13:50.659Z,85.61
2019-01-11T12:16:18.026Z,84.85
2019-01-11T12:18:45.913Z,85.36
2019-01-11T12:21:13.440Z,85.26
2019-01-11T12:23:40.840Z,86.41
2019-01-11T12:26:08.799Z,85.72
2019-01-11T12:28:36.730Z,85.23
2019-01-11T12:31:04.910Z,85.14
2019-01-11T12:33:33.064Z,85.74
2019-01-11T12:36:01.161Z,85.43
2019-01-11T12:38:29.032Z,85.48
2019-01-11T12:40:56.434Z,86.25
2019-01-11T12:43:24.300Z,85.77
2019-01-11T12:45:51.602Z,84.92
2019-01-11T12:48:19.093Z,85.59
2019-01-11T12:50:46.655Z,85.39
2019-01-11T12:53:14.898Z,85.56
2019-01-11T12:55:42.378Z,85.20
2019-01-11T12:58:10.168Z,85.00
2019-01-11T13:00:38.554Z,85.41
2019-01-11T13:03:06.742Z,85.55
2019-01-11T13:05:34.002Z,85.27
2019-01-11T13:08:01.858Z,85.95
2019-01-11T13:10:29.525Z,85.25
2019-01-11T13:13:00.005Z,85.57
2019-01-11T13:15:27.402Z,85.42
2019-01-11T13:17:54.827Z,85.39
2019-01-11T13:20:23.203Z,86.59
2019-01-11T13:22:51.403Z,86.71
2019-01-11T13:25:19.121Z,86.58
2019-01-11T13:27:46.590Z,86.16
2019-01-11T13:30:16.611Z,86.14
2019-01-11T13:32:44.522Z,85.69
2019-01-11T13:35:12.323Z,85.97
2019-01-11T13:37:40.637Z,85.70
2019-01-11T13:40:12.802Z,86.07
2019-01-11T13:42:40.743Z,86.56
2019-01-11T13:45:09.374Z,85.97
2019-01-11T13:47:36.724Z,85.52
2019-01-11T13:50:11.219Z,86.58
2019-01-11T13:52:38.361Z,86.55
2019-01-11T13:55:06.385Z,85.72
2019-01-11T13:57:34.172Z,85.46
2019-01-11T14:00:01.742Z,85.74
2019-01-11T14:02:29.794Z,85.10
2019-01-11T14:04:57.665Z,85.32
2019-01-11T14:07:25.948Z,86.14
2019-01-11T14:09:53.674Z,86.15
2019-01-11T14:12:21.182Z,85.55
2019-01-11T14:14:49.322Z,85.33
2019-01-11T14:17:17.609Z,86.56
2019-01-11T14:19:45.000Z,86.43
2019-01-11T14:22:13.782Z,86.51
2019-01-11T14:24:41.421Z,85.87
2019-01-11T14:27:09.070Z,86.29
2019-01-11T14:29:36.359Z,86.42
2019-01-11T14:32:06.726Z,85.54
2019-01-11T14:34:35.315Z,86.49
2019-01-11T14:37:02.956Z,86.08
2019-01-11T14:39:30.908Z,86.02
2019-01-11T14:41:59.266Z,86.13
2019-01-11T14:44:26.918Z,85.46
2019-01-11T14:46:54.225Z,85.23
2019-01-11T14:49:21.663Z,85.53
2019-01-11T14:51:48.783Z,85.52
2019-01-11T14:54:16.485Z,86.15
2019-01-11T14:56:44.420Z,86.16
2019-01-11T14:59:12.446Z,85.96
2019-01-11T15:01:39.999Z,86.24
2019-01-11T15:04:08.344Z,85.79
2019-01-11T15:06:36.072Z,85.26
2019-01-11T15:09:07.105Z,86.00
2019-01-11T15:11:34.397Z,86.30
2019-01-11T15:14:01.886Z,86.44
2019-01-11T15:16:29.465Z,86.70
2019-01-11T15:18:56.807Z,87.10
2019-01-11T15:21:24.739Z,87.07
2019-01-11T15:23:55.646Z,86.72
2019-01-11T15:26:29.977Z,86.60
2019-01-11T15:28:58.137Z,86.26
2019-01-11T15:31:25.689Z,86.53
2019-01-11T15:33:53.760Z,86.41
2019-01-11T15:36:21.115Z,86.47
2019-01-11T15:38:49.575Z,86.00
2019-01-11T15:41:17.341Z,86.61
2019-01-11T15:43:44.532Z,87.30
2019-01-11T15:46:15.645Z,87.58
2019-01-11T15:48:48.659Z,87.14
2019-01-11T15:51:23.153Z,86.71
2019-01-11T15:53:52.656Z,87.18
2019-01-11T15:56:24.687Z,86.48
2019-01-11T15:58:52.219Z,87.02
2019-01-11T16:01:21.122Z,86.28
2019-01-11T16:03:49.163Z,86.78
2019-01-11T16:06:31.639Z,86.67
2019-01-11T16:09:17.326Z,86.31
2019-01-11T16:11:50.035Z,86.50
2019-01-11T16:14:55.767Z,86.12
2019-01-11T16:17:23.779Z,86.83
2019-01-11T16:19:51.257Z,86.54
2019-01-11T16:22:18.518Z,86.51
2019-01-11T16:24:46.126Z,86.64
2019-01-11T16:27:14.724Z,86.35
2019-01-11T16:29:42.171Z,86.38
2019-01-11T16:32:09.579Z,86.37
2019-01-11T16:34:37.505Z,86.62
2019-01-11T16:37:05.642Z,86.54
2019-01-11T16:39:33.328Z,86.88
2019-01-11T16:42:01.085Z,86.65
2019-01-11T16:44:28.348Z,86.79
2019-01-11T16:46:56.222Z,86.99
2019-01-11T16:49:26.575Z,87.39
2019-01-11T16:51:54.128Z,87.02
2019-01-11T16:54:21.530Z,87.40
2019-01-11T16:56:49.277Z,87.62
2019-01-11T16:59:16.519Z,87.59
2019-01-11T17:01:44.070Z,87.21
2019-01-11T17:04:11.314Z,87.26
2019-01-11T17:06:39.227Z,86.89
2019-01-11T17:09:08.102Z,87.54
2019-01-11T17:11:35.734Z,87.46
2019-01-11T17:14:04.952Z,87.73
2019-01-11T17:16:32.855Z,87.56
2019-01-11T17:19:00.558Z,87.70
2019-01-11T17:21:30.923Z,87.67
2019-01-11T17:23:58.668Z,87.75
2019-01-11T17:26:26.533Z,87.91
2019-01-11T17:28:54.294Z,87.40
2019-01-11T17:31:21.866Z,87.39
2019-01-11T17:33:49.338Z,87.66
2019-01-11T17:36:17.345Z,87.91
2019-01-11T17:38:44.856Z,88.17
2019-01-11T17:41:12.379Z,88.64
2019-01-11T17:43:39.769Z,88.68
2019-01-11T17:46:07.473Z,88.26
2019-01-11T17:48:35.695Z,88.52
2019-01-11T17:51:03.944Z,88.78
2019-01-11T17:53:31.821Z,88.47
2019-01-11T17:55:59.466Z,87.95
2019-01-11T17:58:27.135Z,87.89
2019-01-11T18:00:54.604Z,87.90
2019-01-11T18:03:22.725Z,87.89
2019-01-11T18:05:50.437Z,87.97
2019-01-11T18:08:18.073Z,88.57
2019-01-11T18:10:45.703Z,88.22
2019-01-11T18:13:14.034Z,87.90
2019-01-11T18:15:41.600Z,88.22
2019-01-11T18:18:08.849Z,88.20
2019-01-11T18:20:36.531Z,88.27
2019-01-11T18:23:07.065Z,88.45
2019-01-11T18:25:34.868Z,88.58
2019-01-11T18:28:02.752Z,87.93
2019-01-11T18:30:30.534Z,88.31
2019-01-11T18:32:58.037Z,88.93
2019-01-11T18:35:25.486Z,88.68
2019-01-11T18:37:53.948Z,88.85
2019-01-11T18:40:28.678Z,87.93
2019-01-11T18:42:55.918Z,87.89
2019-01-11T18:45:28.601Z,87.74
2019-01-11T18:47:53.434Z,88.30
2019-01-11T18:50:22.456Z,88.21
2019-01-11T18:52:50.704Z,87.77
2019-01-11T18:55:18.781Z,87.70
2019-01-11T18:57:47.166Z,88.51
2019-01-11T19:00:20.904Z,88.06
2019-01-11T19:02:48.394Z,88.29
2019-01-11T19:05:16.074Z,88.31
2019-01-11T19:07:46.140Z,88.65
2019-01-11T19:10:15.468Z,88.70
2019-01-11T19:12:43.243Z,88.29
2019-01-11T19:15:14.699Z,88.33
2019-01-11T19:17:42.162Z,88.34
2019-01-11T19:20:13.677Z,88.80
2019-01-11T19:22:41.475Z,88.42
2019-01-11T19:25:10.495Z,89.06
2019-01-11T19:27:39.354Z,88.66
2019-01-11T19:30:14.750Z,88.22
2019-01-11T19:32:42.379Z,88.91
2019-01-11T19:35:09.908Z,88.81
2019-01-11T19:37:37.615Z,89.17
2019-01-11T19:40:06.151Z,88.58
2019-01-11T19:42:33.918Z,88.68
2019-01-11T19:45:01.646Z,88.30
2019-01-11T19:47:29.430Z,88.43
2019-01-11T19:49:56.827Z,89.25
2019-01-11T19:52:24.644Z,89.13
2019-01-11T19:54:51.813Z,89.12
2019-01-11T19:57:19.653Z,88.77
2019-01-11T19:59:47.463Z,88.75
2019-01-11T20:02:15.245Z,88.71
2019-01-11T20:04:46.680Z,88.69
2019-01-11T20:07:14.516Z,88.78
2019-01-11T20:09:41.869Z,88.97
2019-01-11T20:12:09.494Z,88.80
2019-01-11T20:14:37.265Z,88.91
2019-01-11T20:17:05.180Z,88.90
2019-01-11T20:19:33.461Z,89.14
2019-01-11T20:22:00.854Z,89.04
2019-01-11T20:24:29.596Z,88.98
2019-01-11T20:26:58.423Z,89.20
2019-01-11T20:29:25.827Z,88.75
2019-01-11T20:31:53.098Z,89.04
2019-01-11T20:34:21.252Z,88.79
2019-01-11T20:37:03.322Z,89.01
2019-01-11T20:39:31.606Z,88.77
2019-01-11T20:41:59.945Z,88.72
2019-01-11T20:44:27.196Z,88.54
2019-01-11T20:46:54.989Z,88.96
2019-01-11T20:49:22.567Z,88.63
2019-01-11T20:51:50.987Z,88.82
2019-01-11T20:54:18.946Z,88.88
2019-01-11T20:56:46.630Z,88.86
2019-01-11T20:59:14.352Z,88.67
2019-01-11T21:01:42.511Z,88.45
2019-01-11T21:04:10.634Z,88.31
2019-01-11T21:06:38.345Z,88.56
2019-01-11T21:09:10.978Z,88.52
2019-01-11T21:11:38.877Z,88.23
2019-01-11T21:14:06.323Z,88.75
2019-01-11T21:16:34.200Z,88.51
2019-01-11T21:19:02.372Z,88.38
2019-01-11T21:21:30.495Z,88.92
2019-01-11T21:23:57.889Z,88.71
2019-01-11T21:26:25.946Z,89.11
2019-01-11T21:28:53.852Z,89.03
2019-01-11T21:31:21.972Z,88.57
2019-01-11T21:33:49.551Z,88.60
2019-01-11T21:36:17.283Z,88.57
2019-01-11T21:38:44.678Z,88.73
2019-01-11T21:41:13.453Z,88.98
2019-01-11T21:43:40.725Z,88.65
2019-01-11T21:46:08.278Z,88.60
2019-01-11T21:48:35.952Z,88.99
2019-01-11T21:51:07.781Z,88.60
2019-01-11T21:53:36.630Z,88.47
2019-01-11T21:56:04.799Z,88.69
2019-01-11T21:58:33.216Z,88.74
2019-01-11T22:01:00.886Z,88.80
2019-01-11T22:03:28.548Z,88.51
2019-01-11T22:05:55.833Z,88.81
2019-01-11T22:08:22.977Z,88.87
2019-01-11T22:10:50.619Z,89.16
2019-01-11T22:13:18.113Z,88.89
2019-01-11T22:15:45.652Z,88.95
2019-01-11T22:18:13.785Z,89.02
2019-01-11T22:20:41.358Z,89.24
2019-01-11T22:23:09.135Z,89.10
2019-01-11T22:25:36.649Z,88.88
2019-01-11T22:28:04.122Z,89.05
2019-01-11T22:30:32.170Z,89.03
2019-01-11T22:32:59.778Z,88.94
2019-01-11T22:35:27.300Z,89.12
2019-01-11T22:37:54.871Z,89.00
2019-01-11T22:40:23.211Z,89.06
2019-01-11T22:42:54.275Z,88.90
2019-01-11T22:45:21.695Z,88.71
2019-01-11T22:47:49.038Z,88.60
2019-01-11T22:50:16.654Z,88.92
2019-01-11T22:52:44.154Z,89.07
2019-01-11T22:55:12.870Z,88.68
2019-01-11T22:57:40.229Z,88.78
2019-01-11T23:00:34.698Z,89.03
2019-01-11T23:03:05.249Z,88.90
2019-01-11T23:05:32.482Z,89.05
2019-01-11T23:08:05.476Z,89.22
2019-01-11T23:11:09.158Z,88.82
2019-01-11T23:13:36.537Z,88.79
2019-01-11T23:16:28.005Z,89.33
2019-01-11T23:18:56.998Z,89.24
2019-01-11T23:21:24.815Z,89.32
2019-01-11T23:23:52.034Z,88.82
2019-01-11T23:26:19.735Z,88.65
2019-01-11T23:28:47.626Z,88.78
2019-01-11T23:31:15.429Z,88.94
2019-01-11T23:33:43.169Z,88.89
2019-01-11T23:36:10.843Z,89.14
2019-01-11T23:38:38.798Z,88.79
2019-01-11T23:41:06.758Z,88.67
2019-01-11T23:43:34.253Z,88.94
2019-01-11T23:46:03.099Z,89.19
2019-01-11T23:48:30.618Z,89.28
2019-01-11T23:50:58.307Z,89.33
2019-01-11T23:53:26.463Z,89.43
2019-01-11T23:55:54.728Z,89.19
2019-01-11T23:58:27.952Z,89.33
